sensor_id;sensor_type;location;lat;lon;timestamp;temperature;humidity
13464;DHT22;6804;48.774;9.174;2023-12-22T00:00:33;9.00;99.90
13464;DHT22;6804;48.774;9.174;2023-12-22T00:03:07;8.90;99.90
13464;DHT22;6804;48.774;9.174;2023-12-22T00:05:37;8.90;99.90
13464;DHT22;6804;48.774;9.174;2023-12-22T00:08:07;9.00;99.90
13464;DHT22;6804;48.774;9.174;2023-12-22T00:10:35;9.00;99.90
13464;DHT22;6804;48.774;9.174;2023-12-22T00:13:03;9.10;99.90
13464;DHT22;6804;48.774;9.174;2023-12-22T00:15:38;9.10;99.90
13464;DHT22;6804;48.774;9.174;2023-12-22T00:18:06;9.20;99.90
13464;DHT22;6804;48.774;9.174;2023-12-22T00:20:35;9.20;99.90
13464;DHT22;6804;48.774;9.174;2023-12-22T00:23:03;9.30;99.90
13464;DHT22;6804;48.774;9.174;2023-12-22T00:25:37;9.40;99.90
13464;DHT22;6804;48.774;9.174;2023-12-22T00:28:26;9.40;99.90
13464;DHT22;6804;48.774;9.174;2023-12-22T00:30:57;9.40;99.90
13464;DHT22;6804;48.774;9.174;2023-12-22T00:33:30;9.40;99.90
13464;DHT22;6804;48.774;9.174;2023-12-22T00:36:01;9.50;99.90
13464;DHT22;6804;48.774;9.174;2023-12-22T00:38:30;9.50;99.90
13464;DHT22;6804;48.774;9.174;2023-12-22T00:40:58;9.40;99.90
13464;DHT22;6804;48.774;9.174;2023-12-22T00:43:27;9.50;99.90
13464;DHT22;6804;48.774;9.174;2023-12-22T00:46:00;9.50;99.90
13464;DHT22;6804;48.774;9.174;2023-12-22T00:48:28;9.40;99.90
13464;DHT22;6804;48.774;9.174;2023-12-22T00:50:56;9.40;99.90
13464;DHT22;6804;48.774;9.174;2023-12-22T00:53:28;9.20;99.90
13464;DHT22;6804;48.774;9.174;2023-12-22T00:56:00;9.10;99.90
13464;DHT22;6804;48.774;9.174;2023-12-22T00:58:29;8.90;99.90
13464;DHT22;6804;48.774;9.174;2023-12-22T01:00:57;8.90;99.90
13464;DHT22;6804;48.774;9.174;2023-12-22T01:03:29;8.90;99.90
13464;DHT22;6804;48.774;9.174;2023-12-22T01:05:57;8.90;99.90
13464;DHT22;6804;48.774;9.174;2023-12-22T01:08:30;8.90;99.90
13464;DHT22;6804;48.774;9.174;2023-12-22T01:10:58;9.00;99.90
13464;DHT22;6804;48.774;9.174;2023-12-22T01:13:31;9.00;99.90
13464;DHT22;6804;48.774;9.174;2023-12-22T01:15:59;9.00;99.90
13464;DHT22;6804;48.774;9.174;2023-12-22T01:18:27;9.10;99.90
13464;DHT22;6804;48.774;9.174;2023-12-22T01:20:56;9.10;99.90
13464;DHT22;6804;48.774;9.174;2023-12-22T01:23:29;9.10;99.90
13464;DHT22;6804;48.774;9.174;2023-12-22T01:25:57;9.10;99.90
13464;DHT22;6804;48.774;9.174;2023-12-22T01:28:31;9.20;99.90
13464;DHT22;6804;48.774;9.174;2023-12-22T01:31:03;9.20;99.90
13464;DHT22;6804;48.774;9.174;2023-12-22T01:33:32;9.20;99.90
13464;DHT22;6804;48.774;9.174;2023-12-22T01:36:00;9.20;99.90
13464;DHT22;6804;48.774;9.174;2023-12-22T01:38:31;9.20;99.90
13464;DHT22;6804;48.774;9.174;2023-12-22T01:40:59;9.20;99.90
13464;DHT22;6804;48.774;9.174;2023-12-22T01:43:29;9.20;99.90
13464;DHT22;6804;48.774;9.174;2023-12-22T01:45:59;9.10;99.90
13464;DHT22;6804;48.774;9.174;2023-12-22T01:48:30;9.20;99.90
13464;DHT22;6804;48.774;9.174;2023-12-22T01:50:58;9.20;99.90
13464;DHT22;6804;48.774;9.174;2023-12-22T01:53:31;9.20;99.90
13464;DHT22;6804;48.774;9.174;2023-12-22T01:56:03;9.10;99.90
13464;DHT22;6804;48.774;9.174;2023-12-22T01:58:50;9.10;99.90
13464;DHT22;6804;48.774;9.174;2023-12-22T02:01:21;9.10;99.90
13464;DHT22;6804;48.774;9.174;2023-12-22T02:03:51;9.10;99.90
13464;DHT22;6804;48.774;9.174;2023-12-22T02:06:22;9.10;99.90
13464;DHT22;6804;48.774;9.174;2023-12-22T02:08:52;9.10;99.90
13464;DHT22;6804;48.774;9.174;2023-12-22T02:11:21;9.10;99.90
13464;DHT22;6804;48.774;9.174;2023-12-22T02:13:51;9.10;99.90
13464;DHT22;6804;48.774;9.174;2023-12-22T02:16:40;9.10;99.90
13464;DHT22;6804;48.774;9.174;2023-12-22T02:22:13;9.10;99.90
13464;DHT22;6804;48.774;9.174;2023-12-22T02:24:46;9.00;99.90
13464;DHT22;6804;48.774;9.174;2023-12-22T02:27:32;9.00;99.90
13464;DHT22;6804;48.774;9.174;2023-12-22T02:30:06;9.00;99.90
13464;DHT22;6804;48.774;9.174;2023-12-22T02:32:40;9.00;99.90
13464;DHT22;6804;48.774;9.174;2023-12-22T02:35:16;9.00;99.90
13464;DHT22;6804;48.774;9.174;2023-12-22T02:37:46;9.00;99.90
13464;DHT22;6804;48.774;9.174;2023-12-22T02:40:16;9.00;99.90
13464;DHT22;6804;48.774;9.174;2023-12-22T02:42:48;9.00;99.90
13464;DHT22;6804;48.774;9.174;2023-12-22T02:45:20;9.00;99.90
13464;DHT22;6804;48.774;9.174;2023-12-22T02:47:49;9.00;99.90
13464;DHT22;6804;48.774;9.174;2023-12-22T02:50:17;9.00;99.90
13464;DHT22;6804;48.774;9.174;2023-12-22T02:52:45;9.00;99.90
13464;DHT22;6804;48.774;9.174;2023-12-22T02:55:12;9.00;99.90
13464;DHT22;6804;48.774;9.174;2023-12-22T02:57:44;9.00;99.90
13464;DHT22;6804;48.774;9.174;2023-12-22T03:00:15;9.00;99.90
13464;DHT22;6804;48.774;9.174;2023-12-22T03:02:45;9.00;99.90
13464;DHT22;6804;48.774;9.174;2023-12-22T03:05:15;9.00;99.90
13464;DHT22;6804;48.774;9.174;2023-12-22T03:07:43;9.10;99.90
13464;DHT22;6804;48.774;9.174;2023-12-22T03:10:14;9.10;99.90
13464;DHT22;6804;48.774;9.174;2023-12-22T03:12:42;9.10;99.90
13464;DHT22;6804;48.774;9.174;2023-12-22T03:15:14;9.10;99.90
13464;DHT22;6804;48.774;9.174;2023-12-22T03:18:01;9.10;99.90
13464;DHT22;6804;48.774;9.174;2023-12-22T03:20:29;9.10;99.90
13464;DHT22;6804;48.774;9.174;2023-12-22T03:22:57;9.10;99.90
13464;DHT22;6804;48.774;9.174;2023-12-22T03:25:26;9.20;99.90
13464;DHT22;6804;48.774;9.174;2023-12-22T03:28:13;9.20;99.90
13464;DHT22;6804;48.774;9.174;2023-12-22T03:30:45;9.20;99.90
13464;DHT22;6804;48.774;9.174;2023-12-22T03:33:13;9.20;99.90
13464;DHT22;6804;48.774;9.174;2023-12-22T03:35:43;9.20;99.90
13464;DHT22;6804;48.774;9.174;2023-12-22T03:38:13;9.20;99.90
13464;DHT22;6804;48.774;9.174;2023-12-22T03:40:47;9.20;99.90
13464;DHT22;6804;48.774;9.174;2023-12-22T03:43:34;9.20;99.90
13464;DHT22;6804;48.774;9.174;2023-12-22T03:46:05;9.20;99.90
13464;DHT22;6804;48.774;9.174;2023-12-22T03:48:33;9.20;99.90
13464;DHT22;6804;48.774;9.174;2023-12-22T03:51:01;9.20;99.90
13464;DHT22;6804;48.774;9.174;2023-12-22T03:53:29;9.20;99.90
13464;DHT22;6804;48.774;9.174;2023-12-22T03:55:57;9.20;99.90
13464;DHT22;6804;48.774;9.174;2023-12-22T03:58:26;9.20;99.90
13464;DHT22;6804;48.774;9.174;2023-12-22T04:00:56;9.20;99.90
13464;DHT22;6804;48.774;9.174;2023-12-22T04:03:25;9.10;99.90
13464;DHT22;6804;48.774;9.174;2023-12-22T04:05:53;9.00;99.90
13464;DHT22;6804;48.774;9.174;2023-12-22T04:08:21;8.90;99.90
13464;DHT22;6804;48.774;9.174;2023-12-22T04:10:52;8.80;99.90
13464;DHT22;6804;48.774;9.174;2023-12-22T04:13:22;8.90;99.90
13464;DHT22;6804;48.774;9.174;2023-12-22T04:15:50;8.90;99.90
13464;DHT22;6804;48.774;9.174;2023-12-22T04:18:18;8.90;99.90
13464;DHT22;6804;48.774;9.174;2023-12-22T04:20:47;8.80;99.90
13464;DHT22;6804;48.774;9.174;2023-12-22T04:23:17;8.70;99.90
13464;DHT22;6804;48.774;9.174;2023-12-22T04:25:48;8.70;99.90
13464;DHT22;6804;48.774;9.174;2023-12-22T04:28:16;8.60;99.90
13464;DHT22;6804;48.774;9.174;2023-12-22T04:30:44;8.60;99.90
13464;DHT22;6804;48.774;9.174;2023-12-22T04:33:12;8.60;99.90
13464;DHT22;6804;48.774;9.174;2023-12-22T04:35:49;8.60;99.90
13464;DHT22;6804;48.774;9.174;2023-12-22T04:38:17;8.60;99.90
13464;DHT22;6804;48.774;9.174;2023-12-22T04:40:45;8.70;99.90
13464;DHT22;6804;48.774;9.174;2023-12-22T04:43:17;8.70;99.90
13464;DHT22;6804;48.774;9.174;2023-12-22T04:45:45;8.70;99.90
13464;DHT22;6804;48.774;9.174;2023-12-22T04:48:14;8.70;99.90
13464;DHT22;6804;48.774;9.174;2023-12-22T04:50:46;8.70;99.90
13464;DHT22;6804;48.774;9.174;2023-12-22T04:53:17;8.70;99.90
13464;DHT22;6804;48.774;9.174;2023-12-22T04:55:46;8.70;99.90
13464;DHT22;6804;48.774;9.174;2023-12-22T04:58:15;8.80;99.90
13464;DHT22;6804;48.774;9.174;2023-12-22T05:00:49;8.80;99.90
13464;DHT22;6804;48.774;9.174;2023-12-22T05:03:39;8.80;99.90
13464;DHT22;6804;48.774;9.174;2023-12-22T05:06:07;8.80;99.90
13464;DHT22;6804;48.774;9.174;2023-12-22T05:08:37;8.80;99.90
13464;DHT22;6804;48.774;9.174;2023-12-22T05:11:08;8.90;99.90
13464;DHT22;6804;48.774;9.174;2023-12-22T05:13:37;8.90;99.90
13464;DHT22;6804;48.774;9.174;2023-12-22T05:16:07;8.90;99.90
13464;DHT22;6804;48.774;9.174;2023-12-22T05:18:36;8.90;99.90
13464;DHT22;6804;48.774;9.174;2023-12-22T05:21:07;8.90;99.90
13464;DHT22;6804;48.774;9.174;2023-12-22T05:23:39;8.90;99.90
13464;DHT22;6804;48.774;9.174;2023-12-22T05:26:25;8.90;99.90
13464;DHT22;6804;48.774;9.174;2023-12-22T05:28:56;9.00;99.90
13464;DHT22;6804;48.774;9.174;2023-12-22T05:31:24;8.90;99.90
13464;DHT22;6804;48.774;9.174;2023-12-22T05:34:11;8.90;99.90
13464;DHT22;6804;48.774;9.174;2023-12-22T05:36:39;9.00;99.90
13464;DHT22;6804;48.774;9.174;2023-12-22T05:39:10;9.00;99.90
13464;DHT22;6804;48.774;9.174;2023-12-22T05:41:40;9.00;99.90
13464;DHT22;6804;48.774;9.174;2023-12-22T05:44:08;9.00;99.90
13464;DHT22;6804;48.774;9.174;2023-12-22T05:49:43;8.90;99.90
13464;DHT22;6804;48.774;9.174;2023-12-22T05:52:14;8.90;99.90
13464;DHT22;6804;48.774;9.174;2023-12-22T05:54:45;8.90;99.90
13464;DHT22;6804;48.774;9.174;2023-12-22T05:57:13;8.90;99.90
13464;DHT22;6804;48.774;9.174;2023-12-22T05:59:41;8.90;99.90
13464;DHT22;6804;48.774;9.174;2023-12-22T06:02:10;8.90;99.90
13464;DHT22;6804;48.774;9.174;2023-12-22T06:04:40;9.00;99.90
13464;DHT22;6804;48.774;9.174;2023-12-22T06:07:09;9.00;99.90
13464;DHT22;6804;48.774;9.174;2023-12-22T06:10:00;9.00;99.90
13464;DHT22;6804;48.774;9.174;2023-12-22T06:12:28;9.00;99.90
13464;DHT22;6804;48.774;9.174;2023-12-22T06:15:01;9.10;99.90
13464;DHT22;6804;48.774;9.174;2023-12-22T06:17:29;9.10;99.90
13464;DHT22;6804;48.774;9.174;2023-12-22T06:19:58;9.10;99.90
13464;DHT22;6804;48.774;9.174;2023-12-22T06:22:26;9.10;99.90
13464;DHT22;6804;48.774;9.174;2023-12-22T06:24:56;9.20;99.90
13464;DHT22;6804;48.774;9.174;2023-12-22T06:27:29;9.20;99.90
13464;DHT22;6804;48.774;9.174;2023-12-22T06:29:58;9.20;99.90
13464;DHT22;6804;48.774;9.174;2023-12-22T06:32:28;9.20;99.90
13464;DHT22;6804;48.774;9.174;2023-12-22T06:35:03;9.20;99.90
13464;DHT22;6804;48.774;9.174;2023-12-22T06:37:31;9.20;99.90
13464;DHT22;6804;48.774;9.174;2023-12-22T06:40:00;9.20;99.90
13464;DHT22;6804;48.774;9.174;2023-12-22T06:42:29;9.20;99.90
13464;DHT22;6804;48.774;9.174;2023-12-22T06:45:00;9.20;99.90
13464;DHT22;6804;48.774;9.174;2023-12-22T06:47:29;9.20;99.90
13464;DHT22;6804;48.774;9.174;2023-12-22T06:49:58;9.20;99.90
13464;DHT22;6804;48.774;9.174;2023-12-22T06:52:29;9.20;99.90
13464;DHT22;6804;48.774;9.174;2023-12-22T06:55:01;9.20;99.90
13464;DHT22;6804;48.774;9.174;2023-12-22T06:57:49;9.30;99.90
13464;DHT22;6804;48.774;9.174;2023-12-22T07:00:19;9.30;99.90
13464;DHT22;6804;48.774;9.174;2023-12-22T07:03:06;9.30;99.90
13464;DHT22;6804;48.774;9.174;2023-12-22T07:05:34;9.30;99.90
13464;DHT22;6804;48.774;9.174;2023-12-22T07:08:04;9.30;99.90
13464;DHT22;6804;48.774;9.174;2023-12-22T07:10:34;9.20;99.90
13464;DHT22;6804;48.774;9.174;2023-12-22T07:13:05;9.20;99.90
13464;DHT22;6804;48.774;9.174;2023-12-22T07:15:36;9.20;99.90
13464;DHT22;6804;48.774;9.174;2023-12-22T07:18:24;9.20;99.90
13464;DHT22;6804;48.774;9.174;2023-12-22T07:21:02;9.20;99.90
13464;DHT22;6804;48.774;9.174;2023-12-22T07:23:32;9.20;99.90
13464;DHT22;6804;48.774;9.174;2023-12-22T07:26:02;9.20;99.90
13464;DHT22;6804;48.774;9.174;2023-12-22T07:28:34;9.30;99.90
13464;DHT22;6804;48.774;9.174;2023-12-22T07:31:02;9.30;99.90
13464;DHT22;6804;48.774;9.174;2023-12-22T07:33:31;9.30;99.90
13464;DHT22;6804;48.774;9.174;2023-12-22T07:36:01;9.30;99.90
13464;DHT22;6804;48.774;9.174;2023-12-22T07:38:32;9.30;99.90
13464;DHT22;6804;48.774;9.174;2023-12-22T07:40:59;9.30;99.90
13464;DHT22;6804;48.774;9.174;2023-12-22T07:43:30;9.20;99.90
13464;DHT22;6804;48.774;9.174;2023-12-22T07:46:00;9.20;99.90
13464;DHT22;6804;48.774;9.174;2023-12-22T07:48:30;9.20;99.90
13464;DHT22;6804;48.774;9.174;2023-12-22T07:51:01;9.20;99.90
13464;DHT22;6804;48.774;9.174;2023-12-22T07:53:30;9.20;99.90
13464;DHT22;6804;48.774;9.174;2023-12-22T07:55:58;9.20;99.90
13464;DHT22;6804;48.774;9.174;2023-12-22T07:58:30;9.30;99.90
13464;DHT22;6804;48.774;9.174;2023-12-22T08:01:00;9.20;99.90
13464;DHT22;6804;48.774;9.174;2023-12-22T08:03:29;9.20;99.90
13464;DHT22;6804;48.774;9.174;2023-12-22T08:06:02;9.20;99.90
13464;DHT22;6804;48.774;9.174;2023-12-22T08:08:31;9.10;99.90
13464;DHT22;6804;48.774;9.174;2023-12-22T08:11:00;9.10;99.90
13464;DHT22;6804;48.774;9.174;2023-12-22T08:13:31;9.10;99.90
13464;DHT22;6804;48.774;9.174;2023-12-22T08:16:01;9.10;99.90
13464;DHT22;6804;48.774;9.174;2023-12-22T08:18:50;9.10;99.90
13464;DHT22;6804;48.774;9.174;2023-12-22T08:21:21;9.20;99.90
13464;DHT22;6804;48.774;9.174;2023-12-22T08:23:53;9.10;99.90
13464;DHT22;6804;48.774;9.174;2023-12-22T08:26:42;9.10;99.90
13464;DHT22;6804;48.774;9.174;2023-12-22T08:29:10;9.10;99.90
13464;DHT22;6804;48.774;9.174;2023-12-22T08:31:40;9.00;99.90
13464;DHT22;6804;48.774;9.174;2023-12-22T08:34:32;9.00;99.90
13464;DHT22;6804;48.774;9.174;2023-12-22T08:37:02;9.00;99.90
13464;DHT22;6804;48.774;9.174;2023-12-22T08:39:54;9.00;99.90
13464;DHT22;6804;48.774;9.174;2023-12-22T08:42:24;8.90;99.90
13464;DHT22;6804;48.774;9.174;2023-12-22T08:44:54;8.90;99.90
13464;DHT22;6804;48.774;9.174;2023-12-22T08:47:27;8.90;99.90
13464;DHT22;6804;48.774;9.174;2023-12-22T08:49:56;8.90;99.90
13464;DHT22;6804;48.774;9.174;2023-12-22T08:52:25;8.90;99.90
13464;DHT22;6804;48.774;9.174;2023-12-22T08:55:13;8.90;99.90
13464;DHT22;6804;48.774;9.174;2023-12-22T08:57:42;8.90;99.90
13464;DHT22;6804;48.774;9.174;2023-12-22T09:00:12;8.90;99.90
13464;DHT22;6804;48.774;9.174;2023-12-22T09:02:43;8.90;99.90
13464;DHT22;6804;48.774;9.174;2023-12-22T09:05:12;9.00;99.90
13464;DHT22;6804;48.774;9.174;2023-12-22T09:07:45;8.90;99.90
13464;DHT22;6804;48.774;9.174;2023-12-22T09:10:13;9.00;99.90
13464;DHT22;6804;48.774;9.174;2023-12-22T09:12:45;9.00;99.90
13464;DHT22;6804;48.774;9.174;2023-12-22T09:15:13;9.00;99.90
13464;DHT22;6804;48.774;9.174;2023-12-22T09:17:46;9.00;99.90
13464;DHT22;6804;48.774;9.174;2023-12-22T09:20:14;9.10;99.90
13464;DHT22;6804;48.774;9.174;2023-12-22T09:22:45;9.10;99.90
13464;DHT22;6804;48.774;9.174;2023-12-22T09:25:13;9.10;99.90
13464;DHT22;6804;48.774;9.174;2023-12-22T09:27:42;9.10;99.90
13464;DHT22;6804;48.774;9.174;2023-12-22T09:30:13;9.20;99.90
13464;DHT22;6804;48.774;9.174;2023-12-22T09:32:46;9.20;99.90
13464;DHT22;6804;48.774;9.174;2023-12-22T09:35:35;9.10;99.90
13464;DHT22;6804;48.774;9.174;2023-12-22T09:38:06;9.20;99.90
13464;DHT22;6804;48.774;9.174;2023-12-22T09:40:34;9.20;99.90
13464;DHT22;6804;48.774;9.174;2023-12-22T09:43:03;9.20;99.90
13464;DHT22;6804;48.774;9.174;2023-12-22T09:45:33;9.30;99.90
13464;DHT22;6804;48.774;9.174;2023-12-22T09:48:07;9.20;99.90
13464;DHT22;6804;48.774;9.174;2023-12-22T09:50:37;9.30;99.90
13464;DHT22;6804;48.774;9.174;2023-12-22T09:53:06;9.30;99.90
13464;DHT22;6804;48.774;9.174;2023-12-22T09:55:38;9.30;99.90
13464;DHT22;6804;48.774;9.174;2023-12-22T09:58:08;9.40;99.90
13464;DHT22;6804;48.774;9.174;2023-12-22T10:00:40;9.40;99.90
13464;DHT22;6804;48.774;9.174;2023-12-22T10:03:13;9.40;99.90
13464;DHT22;6804;48.774;9.174;2023-12-22T10:05:44;9.40;99.90
13464;DHT22;6804;48.774;9.174;2023-12-22T10:08:13;9.40;99.90
13464;DHT22;6804;48.774;9.174;2023-12-22T10:13:27;9.40;99.90
13464;DHT22;6804;48.774;9.174;2023-12-22T10:15:57;9.40;99.90
13464;DHT22;6804;48.774;9.174;2023-12-22T10:18:26;9.40;99.90
13464;DHT22;6804;48.774;9.174;2023-12-22T10:20:55;9.50;99.90
13464;DHT22;6804;48.774;9.174;2023-12-22T10:23:26;9.50;99.90
13464;DHT22;6804;48.774;9.174;2023-12-22T10:25:57;9.50;99.90
13464;DHT22;6804;48.774;9.174;2023-12-22T10:28:28;9.50;99.90
13464;DHT22;6804;48.774;9.174;2023-12-22T10:30:56;9.50;99.90
13464;DHT22;6804;48.774;9.174;2023-12-22T10:33:33;9.50;99.90
13464;DHT22;6804;48.774;9.174;2023-12-22T10:36:05;9.50;99.90
13464;DHT22;6804;48.774;9.174;2023-12-22T10:38:39;9.60;99.90
13464;DHT22;6804;48.774;9.174;2023-12-22T10:41:09;9.60;99.90
13464;DHT22;6804;48.774;9.174;2023-12-22T10:43:38;9.60;99.90
13464;DHT22;6804;48.774;9.174;2023-12-22T10:46:08;9.60;99.90
13464;DHT22;6804;48.774;9.174;2023-12-22T10:48:40;9.60;99.90
13464;DHT22;6804;48.774;9.174;2023-12-22T10:51:09;9.60;99.90
13464;DHT22;6804;48.774;9.174;2023-12-22T10:53:41;9.60;99.90
13464;DHT22;6804;48.774;9.174;2023-12-22T10:56:12;9.70;99.90
13464;DHT22;6804;48.774;9.174;2023-12-22T10:58:47;9.70;99.90
13464;DHT22;6804;48.774;9.174;2023-12-22T11:01:16;9.70;99.90
13464;DHT22;6804;48.774;9.174;2023-12-22T11:03:50;9.70;99.90
13464;DHT22;6804;48.774;9.174;2023-12-22T11:06:20;9.70;99.90
13464;DHT22;6804;48.774;9.174;2023-12-22T11:08:51;9.60;99.90
13464;DHT22;6804;48.774;9.174;2023-12-22T11:11:27;9.70;99.90
13464;DHT22;6804;48.774;9.174;2023-12-22T11:13:57;9.60;99.90
13464;DHT22;6804;48.774;9.174;2023-12-22T11:16:30;9.60;99.90
13464;DHT22;6804;48.774;9.174;2023-12-22T11:19:05;9.60;99.90
13464;DHT22;6804;48.774;9.174;2023-12-22T11:21:40;9.60;99.90
13464;DHT22;6804;48.774;9.174;2023-12-22T11:24:08;9.60;99.90
13464;DHT22;6804;48.774;9.174;2023-12-22T11:26:39;9.60;99.90
13464;DHT22;6804;48.774;9.174;2023-12-22T11:29:10;9.60;99.90
13464;DHT22;6804;48.774;9.174;2023-12-22T11:31:39;9.50;99.90
13464;DHT22;6804;48.774;9.174;2023-12-22T11:34:12;9.50;99.90
13464;DHT22;6804;48.774;9.174;2023-12-22T11:36:47;9.50;99.90
13464;DHT22;6804;48.774;9.174;2023-12-22T11:39:18;9.50;99.90
13464;DHT22;6804;48.774;9.174;2023-12-22T11:41:50;9.50;99.90
13464;DHT22;6804;48.774;9.174;2023-12-22T11:44:32;9.50;99.90
13464;DHT22;6804;48.774;9.174;2023-12-22T11:47:08;9.40;99.90
13464;DHT22;6804;48.774;9.174;2023-12-22T11:49:41;9.40;99.90
13464;DHT22;6804;48.774;9.174;2023-12-22T11:52:14;9.40;99.90
13464;DHT22;6804;48.774;9.174;2023-12-22T11:54:48;9.40;99.90
13464;DHT22;6804;48.774;9.174;2023-12-22T11:57:41;9.40;99.90
13464;DHT22;6804;48.774;9.174;2023-12-22T12:00:37;9.40;99.90
13464;DHT22;6804;48.774;9.174;2023-12-22T12:03:06;9.30;99.90
13464;DHT22;6804;48.774;9.174;2023-12-22T12:05:37;9.40;99.90
13464;DHT22;6804;48.774;9.174;2023-12-22T12:08:07;9.40;99.90
13464;DHT22;6804;48.774;9.174;2023-12-22T12:10:54;9.30;99.90
13464;DHT22;6804;48.774;9.174;2023-12-22T12:13:29;9.30;99.90
13464;DHT22;6804;48.774;9.174;2023-12-22T12:16:00;9.30;99.90
13464;DHT22;6804;48.774;9.174;2023-12-22T12:18:31;9.30;99.90
13464;DHT22;6804;48.774;9.174;2023-12-22T12:21:06;9.30;99.90
13464;DHT22;6804;48.774;9.174;2023-12-22T12:23:35;9.30;99.90
13464;DHT22;6804;48.774;9.174;2023-12-22T12:26:04;9.30;99.90
13464;DHT22;6804;48.774;9.174;2023-12-22T12:28:41;9.40;99.90
13464;DHT22;6804;48.774;9.174;2023-12-22T12:31:15;9.30;99.90
13464;DHT22;6804;48.774;9.174;2023-12-22T12:33:43;9.30;99.90
13464;DHT22;6804;48.774;9.174;2023-12-22T12:36:14;9.40;99.90
13464;DHT22;6804;48.774;9.174;2023-12-22T12:38:55;9.40;99.90
13464;DHT22;6804;48.774;9.174;2023-12-22T12:41:30;9.40;99.90
13464;DHT22;6804;48.774;9.174;2023-12-22T12:44:05;9.40;99.90
13464;DHT22;6804;48.774;9.174;2023-12-22T12:46:41;9.40;99.90
13464;DHT22;6804;48.774;9.174;2023-12-22T12:49:11;9.40;99.90
13464;DHT22;6804;48.774;9.174;2023-12-22T12:51:43;9.40;99.90
13464;DHT22;6804;48.774;9.174;2023-12-22T12:54:18;9.40;99.90
13464;DHT22;6804;48.774;9.174;2023-12-22T12:56:50;9.40;99.90
13464;DHT22;6804;48.774;9.174;2023-12-22T12:59:21;9.40;99.90
13464;DHT22;6804;48.774;9.174;2023-12-22T13:01:50;9.40;99.90
13464;DHT22;6804;48.774;9.174;2023-12-22T13:04:19;9.40;99.90
13464;DHT22;6804;48.774;9.174;2023-12-22T13:06:51;9.40;99.90
13464;DHT22;6804;48.774;9.174;2023-12-22T13:09:32;9.40;99.90
13464;DHT22;6804;48.774;9.174;2023-12-22T13:12:01;9.40;99.90
13464;DHT22;6804;48.774;9.174;2023-12-22T13:14:31;9.40;99.90
13464;DHT22;6804;48.774;9.174;2023-12-22T13:17:02;9.40;99.90
13464;DHT22;6804;48.774;9.174;2023-12-22T13:19:33;9.50;99.90
13464;DHT22;6804;48.774;9.174;2023-12-22T13:22:10;9.50;99.90
13464;DHT22;6804;48.774;9.174;2023-12-22T13:24:41;9.50;99.90
13464;DHT22;6804;48.774;9.174;2023-12-22T13:27:09;9.50;99.90
13464;DHT22;6804;48.774;9.174;2023-12-22T13:29:44;9.50;99.90
13464;DHT22;6804;48.774;9.174;2023-12-22T13:32:21;9.50;99.90
13464;DHT22;6804;48.774;9.174;2023-12-22T13:34:51;9.60;99.90
13464;DHT22;6804;48.774;9.174;2023-12-22T13:37:21;9.60;99.90
13464;DHT22;6804;48.774;9.174;2023-12-22T13:39:51;9.60;99.90
13464;DHT22;6804;48.774;9.174;2023-12-22T13:42:20;9.70;99.90
13464;DHT22;6804;48.774;9.174;2023-12-22T13:44:49;9.80;99.90
13464;DHT22;6804;48.774;9.174;2023-12-22T13:47:21;9.80;99.90
13464;DHT22;6804;48.774;9.174;2023-12-22T13:49:50;9.80;99.90
13464;DHT22;6804;48.774;9.174;2023-12-22T13:52:32;9.90;99.90
13464;DHT22;6804;48.774;9.174;2023-12-22T13:55:01;9.90;99.90
13464;DHT22;6804;48.774;9.174;2023-12-22T13:57:30;10.00;99.90
13464;DHT22;6804;48.774;9.174;2023-12-22T14:00:01;10.10;99.90
13464;DHT22;6804;48.774;9.174;2023-12-22T14:02:31;10.10;99.90
13464;DHT22;6804;48.774;9.174;2023-12-22T14:05:00;10.10;99.90
13464;DHT22;6804;48.774;9.174;2023-12-22T14:07:34;10.10;99.90
13464;DHT22;6804;48.774;9.174;2023-12-22T14:10:05;10.20;99.90
13464;DHT22;6804;48.774;9.174;2023-12-22T14:12:35;10.20;99.90
13464;DHT22;6804;48.774;9.174;2023-12-22T14:15:08;10.20;99.90
13464;DHT22;6804;48.774;9.174;2023-12-22T14:17:37;10.20;99.90
13464;DHT22;6804;48.774;9.174;2023-12-22T14:20:11;10.30;99.90
13464;DHT22;6804;48.774;9.174;2023-12-22T14:22:41;10.30;99.90
13464;DHT22;6804;48.774;9.174;2023-12-22T14:25:12;10.30;99.90
13464;DHT22;6804;48.774;9.174;2023-12-22T14:27:41;10.30;99.90
13464;DHT22;6804;48.774;9.174;2023-12-22T14:30:11;10.40;99.90
13464;DHT22;6804;48.774;9.174;2023-12-22T14:32:42;10.30;99.90
13464;DHT22;6804;48.774;9.174;2023-12-22T14:35:13;10.40;99.90
13464;DHT22;6804;48.774;9.174;2023-12-22T14:37:43;10.40;99.90
13464;DHT22;6804;48.774;9.174;2023-12-22T14:40:13;10.40;99.90
13464;DHT22;6804;48.774;9.174;2023-12-22T14:42:41;10.40;99.90
13464;DHT22;6804;48.774;9.174;2023-12-22T14:45:10;10.40;99.90
13464;DHT22;6804;48.774;9.174;2023-12-22T14:47:44;10.50;99.90
13464;DHT22;6804;48.774;9.174;2023-12-22T14:50:12;10.50;99.90
13464;DHT22;6804;48.774;9.174;2023-12-22T14:52:44;10.50;99.90
13464;DHT22;6804;48.774;9.174;2023-12-22T14:55:14;10.50;99.90
13464;DHT22;6804;48.774;9.174;2023-12-22T14:57:43;10.50;99.90
13464;DHT22;6804;48.774;9.174;2023-12-22T15:00:13;10.50;99.90
13464;DHT22;6804;48.774;9.174;2023-12-22T15:02:43;10.50;99.90
13464;DHT22;6804;48.774;9.174;2023-12-22T15:05:12;10.50;99.90
13464;DHT22;6804;48.774;9.174;2023-12-22T15:07:42;10.50;99.90
13464;DHT22;6804;48.774;9.174;2023-12-22T15:10:12;10.50;99.90
13464;DHT22;6804;48.774;9.174;2023-12-22T15:12:45;10.60;99.90
13464;DHT22;6804;48.774;9.174;2023-12-22T15:15:14;10.60;99.90
13464;DHT22;6804;48.774;9.174;2023-12-22T15:17:43;10.60;99.90
13464;DHT22;6804;48.774;9.174;2023-12-22T15:20:11;10.60;99.90
13464;DHT22;6804;48.774;9.174;2023-12-22T15:22:40;10.60;99.90
13464;DHT22;6804;48.774;9.174;2023-12-22T15:25:12;10.60;99.90
13464;DHT22;6804;48.774;9.174;2023-12-22T15:27:41;10.60;99.90
13464;DHT22;6804;48.774;9.174;2023-12-22T15:30:11;10.60;99.90
13464;DHT22;6804;48.774;9.174;2023-12-22T15:32:41;10.60;99.90
13464;DHT22;6804;48.774;9.174;2023-12-22T15:35:10;10.60;99.90
13464;DHT22;6804;48.774;9.174;2023-12-22T15:37:40;10.60;99.90
13464;DHT22;6804;48.774;9.174;2023-12-22T15:40:15;10.60;99.90
13464;DHT22;6804;48.774;9.174;2023-12-22T15:42:45;10.60;99.90
13464;DHT22;6804;48.774;9.174;2023-12-22T15:45:32;10.60;99.90
13464;DHT22;6804;48.774;9.174;2023-12-22T15:48:02;10.60;99.90
13464;DHT22;6804;48.774;9.174;2023-12-22T15:50:33;10.60;99.90
13464;DHT22;6804;48.774;9.174;2023-12-22T15:53:04;10.70;99.90
13464;DHT22;6804;48.774;9.174;2023-12-22T15:55:37;10.60;99.90
13464;DHT22;6804;48.774;9.174;2023-12-22T15:58:23;10.60;99.90
13464;DHT22;6804;48.774;9.174;2023-12-22T16:00:51;10.70;99.90
13464;DHT22;6804;48.774;9.174;2023-12-22T16:03:19;10.70;99.90
13464;DHT22;6804;48.774;9.174;2023-12-22T16:05:49;10.70;99.90
13464;DHT22;6804;48.774;9.174;2023-12-22T16:08:18;10.70;99.90
13464;DHT22;6804;48.774;9.174;2023-12-22T16:10:47;10.70;99.90
13464;DHT22;6804;48.774;9.174;2023-12-22T16:13:18;10.70;99.90
13464;DHT22;6804;48.774;9.174;2023-12-22T16:15:49;10.70;99.90
13464;DHT22;6804;48.774;9.174;2023-12-22T16:18:17;10.70;99.90
13464;DHT22;6804;48.774;9.174;2023-12-22T16:20:46;10.70;99.90
13464;DHT22;6804;48.774;9.174;2023-12-22T16:23:17;10.70;99.90
13464;DHT22;6804;48.774;9.174;2023-12-22T16:25:50;10.70;99.90
13464;DHT22;6804;48.774;9.174;2023-12-22T16:28:18;10.80;99.90
13464;DHT22;6804;48.774;9.174;2023-12-22T16:30:46;10.80;99.90
13464;DHT22;6804;48.774;9.174;2023-12-22T16:33:16;10.80;99.90
13464;DHT22;6804;48.774;9.174;2023-12-22T16:35:44;10.70;99.90